sensor_id;sensor_type;location;lat;lon;timestamp;pressure;altitude;pressure_sealevel;temperature;humidity
7662;BME280;30314;48.184;11.510;2023-03-31T00:00:57;95527.00;;;7.04;100.00
7662;BME280;30314;48.184;11.510;2023-03-31T00:03:26;95517.78;;;7.12;100.00
7662;BME280;30314;48.184;11.510;2023-03-31T00:05:57;95518.38;;;7.44;100.00
7662;BME280;30314;48.184;11.510;2023-03-31T00:08:26;95521.22;;;7.53;100.00
7662;BME280;30314;48.184;11.510;2023-03-31T00:10:58;95520.69;;;7.56;100.00
7662;BME280;30314;48.184;11.510;2023-03-31T00:13:26;95476.13;;;7.40;100.00
7662;BME280;30314;48.184;11.510;2023-03-31T00:16:07;95494.41;;;7.51;100.00
7662;BME280;30314;48.184;11.510;2023-03-31T00:18:35;95497.53;;;7.58;100.00
7662;BME280;30314;48.184;11.510;2023-03-31T00:21:07;95500.59;;;7.70;100.00
7662;BME280;30314;48.184;11.510;2023-03-31T00:23:34;95478.84;;;7.59;100.00
7662;BME280;30314;48.184;11.510;2023-03-31T00:26:01;95485.69;;;7.90;100.00
7662;BME280;30314;48.184;11.510;2023-03-31T00:28:27;95494.06;;;7.97;100.00
7662;BME280;30314;48.184;11.510;2023-03-31T00:30:59;95489.56;;;7.98;100.00
7662;BME280;30314;48.184;11.510;2023-03-31T00:33:25;95487.50;;;7.95;100.00
7662;BME280;30314;48.184;11.510;2023-03-31T00:35:52;95475.97;;;7.91;100.00
7662;BME280;30314;48.184;11.510;2023-03-31T00:38:18;95473.34;;;7.91;100.00
7662;BME280;30314;48.184;11.510;2023-03-31T00:40:48;95458.91;;;7.88;100.00
7662;BME280;30314;48.184;11.510;2023-03-31T00:43:37;95456.53;;;7.86;100.00
7662;BME280;30314;48.184;11.510;2023-03-31T00:46:14;95421.41;;;7.77;100.00
7662;BME280;30314;48.184;11.510;2023-03-31T00:48:47;95435.88;;;8.04;100.00
7662;BME280;30314;48.184;11.510;2023-03-31T00:51:17;95443.38;;;8.16;100.00
7662;BME280;30314;48.184;11.510;2023-03-31T00:53:48;95440.50;;;8.12;100.00
7662;BME280;30314;48.184;11.510;2023-03-31T00:56:20;95433.75;;;8.06;100.00
7662;BME280;30314;48.184;11.510;2023-03-31T00:58:47;95421.50;;;7.96;100.00
7662;BME280;30314;48.184;11.510;2023-03-31T01:01:18;95430.09;;;8.02;100.00
7662;BME280;30314;48.184;11.510;2023-03-31T01:03:46;95425.63;;;8.02;100.00
7662;BME280;30314;48.184;11.510;2023-03-31T01:06:15;95433.19;;;8.09;100.00
7662;BME280;30314;48.184;11.510;2023-03-31T01:08:47;95427.34;;;8.12;100.00
7662;BME280;30314;48.184;11.510;2023-03-31T01:11:19;95417.97;;;8.06;100.00
7662;BME280;30314;48.184;11.510;2023-03-31T01:13:47;95417.91;;;8.11;100.00
7662;BME280;30314;48.184;11.510;2023-03-31T01:16:17;95398.16;;;8.14;100.00
7662;BME280;30314;48.184;11.510;2023-03-31T01:18:43;95400.44;;;8.21;100.00
7662;BME280;30314;48.184;11.510;2023-03-31T01:30:21;95398.03;;;8.24;100.00
7662;BME280;30314;48.184;11.510;2023-03-31T01:38:47;95372.44;;;8.30;100.00
7662;BME280;30314;48.184;11.510;2023-03-31T01:46:54;95362.66;;;8.11;100.00
7662;BME280;30314;48.184;11.510;2023-03-31T01:49:44;95372.91;;;8.13;100.00
7662;BME280;30314;48.184;11.510;2023-03-31T01:54:47;95364.28;;;8.07;100.00
7662;BME280;30314;48.184;11.510;2023-03-31T01:57:23;95354.53;;;8.32;100.00
7662;BME280;30314;48.184;11.510;2023-03-31T02:00:06;95352.31;;;8.39;100.00
7662;BME280;30314;48.184;11.510;2023-03-31T02:02:41;95346.69;;;8.46;100.00
7662;BME280;30314;48.184;11.510;2023-03-31T02:05:16;95332.41;;;8.33;100.00
7662;BME280;30314;48.184;11.510;2023-03-31T02:07:52;95340.09;;;8.49;100.00
7662;BME280;30314;48.184;11.510;2023-03-31T02:10:21;95333.72;;;8.55;100.00
7662;BME280;30314;48.184;11.510;2023-03-31T02:12:50;95326.31;;;8.57;100.00
7662;BME280;30314;48.184;11.510;2023-03-31T02:15:24;95324.66;;;8.61;100.00
7662;BME280;30314;48.184;11.510;2023-03-31T02:17:55;95320.03;;;8.53;100.00
7662;BME280;30314;48.184;11.510;2023-03-31T02:20:24;95328.94;;;8.57;100.00
7662;BME280;30314;48.184;11.510;2023-03-31T02:22:54;95313.97;;;8.71;100.00
7662;BME280;30314;48.184;11.510;2023-03-31T02:25:25;95300.53;;;8.73;100.00
7662;BME280;30314;48.184;11.510;2023-03-31T02:28:01;95306.69;;;8.82;100.00
7662;BME280;30314;48.184;11.510;2023-03-31T02:30:40;95311.19;;;8.82;100.00
7662;BME280;30314;48.184;11.510;2023-03-31T02:33:10;95301.19;;;8.65;100.00
7662;BME280;30314;48.184;11.510;2023-03-31T02:35:37;95295.78;;;8.56;100.00
7662;BME280;30314;48.184;11.510;2023-03-31T02:38:03;95297.94;;;8.54;100.00
7662;BME280;30314;48.184;11.510;2023-03-31T02:40:32;95303.19;;;8.54;100.00
7662;BME280;30314;48.184;11.510;2023-03-31T02:42:58;95296.91;;;8.69;100.00
7662;BME280;30314;48.184;11.510;2023-03-31T02:45:44;95309.66;;;8.95;100.00
7662;BME280;30314;48.184;11.510;2023-03-31T02:48:22;95305.59;;;9.02;100.00
7662;BME280;30314;48.184;11.510;2023-03-31T02:51:38;95316.34;;;9.06;100.00
7662;BME280;30314;48.184;11.510;2023-03-31T02:58:00;95307.25;;;8.98;100.00
7662;BME280;30314;48.184;11.510;2023-03-31T03:03:55;95296.13;;;9.01;100.00
7662;BME280;30314;48.184;11.510;2023-03-31T03:06:48;95296.88;;;8.88;100.00
7662;BME280;30314;48.184;11.510;2023-03-31T03:12:11;95274.88;;;8.65;100.00
7662;BME280;30314;48.184;11.510;2023-03-31T03:15:10;95294.50;;;8.72;100.00
7662;BME280;30314;48.184;11.510;2023-03-31T03:17:41;95290.53;;;8.56;100.00
7662;BME280;30314;48.184;11.510;2023-03-31T03:20:10;95297.63;;;8.55;100.00
7662;BME280;30314;48.184;11.510;2023-03-31T03:22:38;95295.84;;;8.51;100.00
7662;BME280;30314;48.184;11.510;2023-03-31T03:25:07;95301.13;;;8.51;100.00
7662;BME280;30314;48.184;11.510;2023-03-31T03:27:35;95311.44;;;8.47;100.00
7662;BME280;30314;48.184;11.510;2023-03-31T03:30:03;95309.81;;;8.51;100.00
7662;BME280;30314;48.184;11.510;2023-03-31T03:32:32;95314.22;;;8.56;100.00
7662;BME280;30314;48.184;11.510;2023-03-31T03:35:03;95306.94;;;8.48;100.00
7662;BME280;30314;48.184;11.510;2023-03-31T03:37:31;95325.28;;;8.53;100.00
7662;BME280;30314;48.184;11.510;2023-03-31T03:39:57;95310.75;;;8.41;100.00
7662;BME280;30314;48.184;11.510;2023-03-31T03:42:24;95335.06;;;8.52;100.00
7662;BME280;30314;48.184;11.510;2023-03-31T03:44:50;95330.78;;;8.56;100.00
7662;BME280;30314;48.184;11.510;2023-03-31T03:47:17;95300.03;;;8.32;100.00
7662;BME280;30314;48.184;11.510;2023-03-31T03:49:43;95317.75;;;8.46;100.00
7662;BME280;30314;48.184;11.510;2023-03-31T03:52:10;95314.34;;;8.45;100.00
7662;BME280;30314;48.184;11.510;2023-03-31T03:54:36;95319.13;;;8.43;100.00
7662;BME280;30314;48.184;11.510;2023-03-31T03:57:03;95307.59;;;8.39;100.00
7662;BME280;30314;48.184;11.510;2023-03-31T03:59:29;95294.59;;;8.29;100.00
7662;BME280;30314;48.184;11.510;2023-03-31T04:01:56;95287.31;;;8.21;100.00
7662;BME280;30314;48.184;11.510;2023-03-31T04:04:22;95279.94;;;8.23;100.00
7662;BME280;30314;48.184;11.510;2023-03-31T04:06:49;95286.22;;;8.27;100.00
7662;BME280;30314;48.184;11.510;2023-03-31T04:09:16;95267.44;;;8.14;100.00
7662;BME280;30314;48.184;11.510;2023-03-31T04:11:43;95276.88;;;8.15;100.00
7662;BME280;30314;48.184;11.510;2023-03-31T04:14:09;95272.34;;;8.21;100.00
7662;BME280;30314;48.184;11.510;2023-03-31T04:16:36;95265.28;;;8.16;100.00
7662;BME280;30314;48.184;11.510;2023-03-31T04:19:03;95264.81;;;8.14;100.00
7662;BME280;30314;48.184;11.510;2023-03-31T04:21:31;95235.56;;;7.97;100.00
7662;BME280;30314;48.184;11.510;2023-03-31T04:24:00;95242.75;;;8.10;100.00
7662;BME280;30314;48.184;11.510;2023-03-31T04:26:31;95250.84;;;8.14;100.00
7662;BME280;30314;48.184;11.510;2023-03-31T04:29:13;95227.81;;;8.06;100.00
7662;BME280;30314;48.184;11.510;2023-03-31T04:31:42;95223.56;;;8.10;100.00
7662;BME280;30314;48.184;11.510;2023-03-31T04:34:11;95221.22;;;8.08;100.00
7662;BME280;30314;48.184;11.510;2023-03-31T04:36:40;95217.50;;;8.09;100.00
7662;BME280;30314;48.184;11.510;2023-03-31T04:39:08;95210.34;;;8.15;100.00
7662;BME280;30314;48.184;11.510;2023-03-31T04:41:36;95199.41;;;8.08;100.00
7662;BME280;30314;48.184;11.510;2023-03-31T04:44:03;95196.84;;;8.02;100.00
7662;BME280;30314;48.184;11.510;2023-03-31T04:46:30;95185.59;;;7.97;100.00
7662;BME280;30314;48.184;11.510;2023-03-31T04:48:57;95187.25;;;7.93;100.00
7662;BME280;30314;48.184;11.510;2023-03-31T04:51:24;95188.00;;;7.93;100.00
7662;BME280;30314;48.184;11.510;2023-03-31T04:53:51;95119.84;;;7.64;100.00
7662;BME280;30314;48.184;11.510;2023-03-31T04:56:17;95110.66;;;7.80;100.00
7662;BME280;30314;48.184;11.510;2023-03-31T04:58:44;95123.91;;;8.08;100.00
7662;BME280;30314;48.184;11.510;2023-03-31T05:01:10;95060.38;;;7.68;100.00
7662;BME280;30314;48.184;11.510;2023-03-31T05:03:39;95061.78;;;7.79;100.00
7662;BME280;30314;48.184;11.510;2023-03-31T05:06:06;95082.09;;;7.93;100.00
7662;BME280;30314;48.184;11.510;2023-03-31T05:08:33;95089.31;;;8.01;100.00
7662;BME280;30314;48.184;11.510;2023-03-31T05:11:01;95088.09;;;7.93;100.00
7662;BME280;30314;48.184;11.510;2023-03-31T05:13:28;95061.53;;;7.95;100.00
7662;BME280;30314;48.184;11.510;2023-03-31T05:15:55;95049.09;;;8.00;100.00
7662;BME280;30314;48.184;11.510;2023-03-31T05:18:21;95059.81;;;8.04;100.00
7662;BME280;30314;48.184;11.510;2023-03-31T05:20:48;95041.00;;;7.97;100.00
7662;BME280;30314;48.184;11.510;2023-03-31T05:23:14;95041.41;;;8.04;100.00
7662;BME280;30314;48.184;11.510;2023-03-31T05:25:41;94990.31;;;7.77;100.00
7662;BME280;30314;48.184;11.510;2023-03-31T05:28:08;95044.09;;;7.99;100.00
7662;BME280;30314;48.184;11.510;2023-03-31T05:30:37;95037.22;;;8.03;100.00
7662;BME280;30314;48.184;11.510;2023-03-31T05:33:04;95014.50;;;7.93;100.00
7662;BME280;30314;48.184;11.510;2023-03-31T05:35:30;94992.41;;;7.94;100.00
7662;BME280;30314;48.184;11.510;2023-03-31T05:37:57;95003.97;;;7.93;100.00
7662;BME280;30314;48.184;11.510;2023-03-31T05:40:23;94956.91;;;7.78;100.00
7662;BME280;30314;48.184;11.510;2023-03-31T05:42:50;94991.25;;;8.00;100.00
7662;BME280;30314;48.184;11.510;2023-03-31T05:45:17;94934.63;;;7.75;100.00
7662;BME280;30314;48.184;11.510;2023-03-31T05:47:43;94940.69;;;7.89;100.00
7662;BME280;30314;48.184;11.510;2023-03-31T05:50:10;94944.41;;;7.88;100.00
7662;BME280;30314;48.184;11.510;2023-03-31T05:52:40;94959.91;;;8.04;100.00
7662;BME280;30314;48.184;11.510;2023-03-31T05:55:06;94949.75;;;8.11;100.00
7662;BME280;30314;48.184;11.510;2023-03-31T05:57:33;94935.75;;;8.02;100.00
7662;BME280;30314;48.184;11.510;2023-03-31T06:00:00;94913.03;;;7.92;100.00
7662;BME280;30314;48.184;11.510;2023-03-31T06:02:29;94928.03;;;8.06;100.00
7662;BME280;30314;48.184;11.510;2023-03-31T06:04:56;94920.53;;;8.13;100.00
7662;BME280;30314;48.184;11.510;2023-03-31T06:07:23;94922.59;;;8.30;100.00
7662;BME280;30314;48.184;11.510;2023-03-31T06:09:50;94911.06;;;8.26;100.00
7662;BME280;30314;48.184;11.510;2023-03-31T06:12:17;94910.69;;;8.46;100.00
7662;BME280;30314;48.184;11.510;2023-03-31T06:14:43;94824.53;;;7.87;100.00
7662;BME280;30314;48.184;11.510;2023-03-31T06:17:09;94870.06;;;8.25;100.00
7662;BME280;30314;48.184;11.510;2023-03-31T06:19:37;94854.00;;;8.26;100.00
7662;BME280;30314;48.184;11.510;2023-03-31T06:22:05;94854.66;;;8.32;100.00
7662;BME280;30314;48.184;11.510;2023-03-31T06:24:31;94849.03;;;8.25;100.00
7662;BME280;30314;48.184;11.510;2023-03-31T06:26:58;94797.75;;;7.85;100.00
7662;BME280;30314;48.184;11.510;2023-03-31T06:29:26;94801.06;;;7.91;100.00
7662;BME280;30314;48.184;11.510;2023-03-31T06:31:53;94844.03;;;8.37;100.00
7662;BME280;30314;48.184;11.510;2023-03-31T06:34:20;94866.03;;;8.55;100.00
7662;BME280;30314;48.184;11.510;2023-03-31T06:36:47;94820.94;;;8.34;100.00
7662;BME280;30314;48.184;11.510;2023-03-31T06:39:13;94843.41;;;8.54;100.00
7662;BME280;30314;48.184;11.510;2023-03-31T06:41:39;94842.34;;;8.55;100.00
7662;BME280;30314;48.184;11.510;2023-03-31T06:44:07;94845.38;;;8.49;100.00
7662;BME280;30314;48.184;11.510;2023-03-31T06:46:34;94805.28;;;8.29;100.00
7662;BME280;30314;48.184;11.510;2023-03-31T06:49:00;94824.13;;;8.45;100.00
7662;BME280;30314;48.184;11.510;2023-03-31T06:51:27;94847.59;;;8.55;100.00
7662;BME280;30314;48.184;11.510;2023-03-31T06:53:57;94777.25;;;8.10;100.00
7662;BME280;30314;48.184;11.510;2023-03-31T06:56:23;94866.41;;;8.63;100.00
7662;BME280;30314;48.184;11.510;2023-03-31T06:58:49;94868.38;;;8.57;100.00
7662;BME280;30314;48.184;11.510;2023-03-31T07:01:16;94827.88;;;8.30;100.00
7662;BME280;30314;48.184;11.510;2023-03-31T07:03:43;94870.91;;;8.48;100.00
7662;BME280;30314;48.184;11.510;2023-03-31T07:06:10;94896.03;;;8.54;100.00
7662;BME280;30314;48.184;11.510;2023-03-31T07:08:36;94912.34;;;8.42;100.00
7662;BME280;30314;48.184;11.510;2023-03-31T07:11:03;94949.47;;;8.55;100.00
7662;BME280;30314;48.184;11.510;2023-03-31T07:13:30;94958.59;;;8.57;100.00
7662;BME280;30314;48.184;11.510;2023-03-31T07:15:57;94987.84;;;8.42;100.00
7662;BME280;30314;48.184;11.510;2023-03-31T07:18:23;94950.94;;;8.47;100.00
7662;BME280;30314;48.184;11.510;2023-03-31T07:20:51;94925.91;;;8.36;100.00
7662;BME280;30314;48.184;11.510;2023-03-31T07:23:19;94991.75;;;8.58;100.00
7662;BME280;30314;48.184;11.510;2023-03-31T07:25:46;95015.13;;;8.46;100.00
7662;BME280;30314;48.184;11.510;2023-03-31T07:28:13;95005.19;;;8.43;100.00
7662;BME280;30314;48.184;11.510;2023-03-31T07:30:40;95003.25;;;8.49;100.00
7662;BME280;30314;48.184;11.510;2023-03-31T07:33:07;94993.59;;;8.44;100.00
7662;BME280;30314;48.184;11.510;2023-03-31T07:35:38;94972.88;;;8.42;100.00
7662;BME280;30314;48.184;11.510;2023-03-31T07:38:07;94941.19;;;8.20;100.00
7662;BME280;30314;48.184;11.510;2023-03-31T07:40:34;94915.97;;;8.18;100.00
7662;BME280;30314;48.184;11.510;2023-03-31T07:43:00;94940.41;;;8.33;100.00
7662;BME280;30314;48.184;11.510;2023-03-31T07:45:27;94924.03;;;8.36;100.00
7662;BME280;30314;48.184;11.510;2023-03-31T07:47:54;94898.19;;;8.38;100.00
7662;BME280;30314;48.184;11.510;2023-03-31T07:50:21;94871.72;;;8.35;100.00
7662;BME280;30314;48.184;11.510;2023-03-31T07:52:51;94899.34;;;8.60;100.00
7662;BME280;30314;48.184;11.510;2023-03-31T07:55:18;94891.31;;;8.65;100.00
7662;BME280;30314;48.184;11.510;2023-03-31T07:57:45;94850.84;;;8.38;100.00
7662;BME280;30314;48.184;11.510;2023-03-31T08:00:13;94817.19;;;8.26;100.00
7662;BME280;30314;48.184;11.510;2023-03-31T08:02:41;94856.81;;;8.67;100.00
7662;BME280;30314;48.184;11.510;2023-03-31T08:05:10;94855.28;;;8.66;100.00
7662;BME280;30314;48.184;11.510;2023-03-31T08:07:39;94814.25;;;8.65;100.00
7662;BME280;30314;48.184;11.510;2023-03-31T08:10:09;94787.00;;;8.46;100.00
7662;BME280;30314;48.184;11.510;2023-03-31T08:12:36;94822.44;;;8.86;100.00
7662;BME280;30314;48.184;11.510;2023-03-31T08:15:03;94818.50;;;8.97;100.00
7662;BME280;30314;48.184;11.510;2023-03-31T08:17:30;94798.13;;;8.89;100.00
7662;BME280;30314;48.184;11.510;2023-03-31T08:19:57;94826.25;;;9.02;100.00
7662;BME280;30314;48.184;11.510;2023-03-31T08:22:29;94821.22;;;8.92;100.00
7662;BME280;30314;48.184;11.510;2023-03-31T08:24:55;94771.84;;;8.66;100.00
7662;BME280;30314;48.184;11.510;2023-03-31T08:27:22;94747.66;;;8.64;100.00
7662;BME280;30314;48.184;11.510;2023-03-31T08:29:48;94795.78;;;9.10;100.00
7662;BME280;30314;48.184;11.510;2023-03-31T08:32:15;94747.41;;;8.74;100.00
7662;BME280;30314;48.184;11.510;2023-03-31T08:34:41;94826.47;;;9.15;100.00
7662;BME280;30314;48.184;11.510;2023-03-31T08:37:08;94803.16;;;9.22;100.00
7662;BME280;30314;48.184;11.510;2023-03-31T08:39:35;94711.31;;;8.66;100.00
7662;BME280;30314;48.184;11.510;2023-03-31T08:42:29;94813.13;;;9.34;100.00
7662;BME280;30314;48.184;11.510;2023-03-31T08:45:03;94828.03;;;9.39;100.00
7662;BME280;30314;48.184;11.510;2023-03-31T08:47:33;94819.91;;;9.26;100.00
7662;BME280;30314;48.184;11.510;2023-03-31T08:50:14;94857.75;;;9.30;100.00
7662;BME280;30314;48.184;11.510;2023-03-31T08:52:46;94858.16;;;9.24;100.00
7662;BME280;30314;48.184;11.510;2023-03-31T08:55:29;94890.34;;;9.35;100.00
7662;BME280;30314;48.184;11.510;2023-03-31T08:58:02;94848.88;;;9.03;100.00
7662;BME280;30314;48.184;11.510;2023-03-31T09:00:39;94904.06;;;9.54;100.00
7662;BME280;30314;48.184;11.510;2023-03-31T09:03:19;94879.00;;;9.66;100.00
7662;BME280;30314;48.184;11.510;2023-03-31T09:06:00;94829.34;;;9.50;100.00
7662;BME280;30314;48.184;11.510;2023-03-31T09:08:36;94859.94;;;9.69;100.00
7662;BME280;30314;48.184;11.510;2023-03-31T09:16:43;94865.91;;;9.92;100.00
7662;BME280;30314;48.184;11.510;2023-03-31T09:19:19;94871.53;;;9.91;100.00
7662;BME280;30314;48.184;11.510;2023-03-31T09:21:50;94858.22;;;10.05;100.00
7662;BME280;30314;48.184;11.510;2023-03-31T09:24:26;94847.81;;;10.08;100.00
7662;BME280;30314;48.184;11.510;2023-03-31T09:27:11;94828.34;;;10.45;100.00
7662;BME280;30314;48.184;11.510;2023-03-31T09:30:31;94828.16;;;10.58;100.00
7662;BME280;30314;48.184;11.510;2023-03-31T09:32:37;94809.84;;;10.62;100.00
7662;BME280;30314;48.184;11.510;2023-03-31T09:35:18;94825.38;;;10.90;100.00
7662;BME280;30314;48.184;11.510;2023-03-31T09:37:48;94821.94;;;11.16;100.00
7662;BME280;30314;48.184;11.510;2023-03-31T09:40:22;94802.00;;;11.27;100.00
7662;BME280;30314;48.184;11.510;2023-03-31T09:42:56;94793.47;;;11.22;100.00
7662;BME280;30314;48.184;11.510;2023-03-31T09:45:23;94810.41;;;11.30;100.00
7662;BME280;30314;48.184;11.510;2023-03-31T09:47:53;94801.38;;;11.39;100.00
7662;BME280;30314;48.184;11.510;2023-03-31T09:50:21;94806.13;;;11.55;100.00
7662;BME280;30314;48.184;11.510;2023-03-31T09:52:52;94785.94;;;11.50;100.00
7662;BME280;30314;48.184;11.510;2023-03-31T09:55:24;94790.97;;;11.73;100.00
7662;BME280;30314;48.184;11.510;2023-03-31T09:58:06;94784.09;;;11.81;100.00
7662;BME280;30314;48.184;11.510;2023-03-31T10:00:34;94772.56;;;11.86;100.00
7662;BME280;30314;48.184;11.510;2023-03-31T10:03:02;94802.56;;;11.90;100.00
7662;BME280;30314;48.184;11.510;2023-03-31T10:05:49;94788.72;;;11.84;100.00
7662;BME280;30314;48.184;11.510;2023-03-31T10:10:49;94776.19;;;12.02;100.00
7662;BME280;30314;48.184;11.510;2023-03-31T10:13:19;94759.34;;;12.28;100.00
7662;BME280;30314;48.184;11.510;2023-03-31T10:15:54;94766.44;;;12.36;100.00
7662;BME280;30314;48.184;11.510;2023-03-31T10:18:30;94675.88;;;12.09;100.00
7662;BME280;30314;48.184;11.510;2023-03-31T10:21:03;94754.75;;;12.80;100.00
7662;BME280;30314;48.184;11.510;2023-03-31T10:23:33;94716.56;;;12.81;100.00
7662;BME280;30314;48.184;11.510;2023-03-31T10:26:00;94743.09;;;13.06;100.00
7662;BME280;30314;48.184;11.510;2023-03-31T10:28:34;94714.41;;;13.08;100.00
7662;BME280;30314;48.184;11.510;2023-03-31T10:31:01;94724.22;;;13.20;100.00
7662;BME280;30314;48.184;11.510;2023-03-31T10:33:31;94730.97;;;13.30;100.00
7662;BME280;30314;48.184;11.510;2023-03-31T10:36:08;94709.75;;;13.30;100.00
7662;BME280;30314;48.184;11.510;2023-03-31T10:38:45;94695.06;;;13.45;100.00
7662;BME280;30314;48.184;11.510;2023-03-31T10:41:24;94697.06;;;13.60;100.00
7662;BME280;30314;48.184;11.510;2023-03-31T10:43:54;94711.50;;;13.88;100.00
7662;BME280;30314;48.184;11.510;2023-03-31T10:46:38;94710.41;;;13.76;100.00
7662;BME280;30314;48.184;11.510;2023-03-31T10:49:14;94711.31;;;13.56;100.00
7662;BME280;30314;48.184;11.510;2023-03-31T10:51:54;94689.88;;;13.48;100.00
7662;BME280;30314;48.184;11.510;2023-03-31T10:54:21;94693.28;;;13.61;100.00
7662;BME280;30314;48.184;11.510;2023-03-31T10:57:00;94674.66;;;13.45;100.00
7662;BME280;30314;48.184;11.510;2023-03-31T10:59:52;94671.09;;;13.53;100.00
7662;BME280;30314;48.184;11.510;2023-03-31T11:02:46;94679.16;;;13.57;100.00
7662;BME280;30314;48.184;11.510;2023-03-31T11:05:25;94665.34;;;13.39;100.00
7662;BME280;30314;48.184;11.510;2023-03-31T11:08:25;94660.72;;;13.23;100.00
7662;BME280;30314;48.184;11.510;2023-03-31T11:14:32;94661.94;;;13.01;100.00
7662;BME280;30314;48.184;11.510;2023-03-31T11:19:58;94721.41;;;12.79;100.00
7662;BME280;30314;48.184;11.510;2023-03-31T11:22:35;94762.31;;;12.05;100.00
7662;BME280;30314;48.184;11.510;2023-03-31T11:30:57;94712.97;;;10.54;100.00
7662;BME280;30314;48.184;11.510;2023-03-31T11:36:42;94717.97;;;10.20;100.00
7662;BME280;30314;48.184;11.510;2023-03-31T11:39:34;94723.53;;;10.36;100.00
7662;BME280;30314;48.184;11.510;2023-03-31T11:42:09;94708.31;;;10.42;100.00
7662;BME280;30314;48.184;11.510;2023-03-31T11:44:44;94672.09;;;10.60;100.00
7662;BME280;30314;48.184;11.510;2023-03-31T11:47:17;94656.25;;;10.60;100.00
7662;BME280;30314;48.184;11.510;2023-03-31T11:49:50;94656.38;;;10.72;100.00
7662;BME280;30314;48.184;11.510;2023-03-31T11:52:24;94640.31;;;10.95;100.00
7662;BME280;30314;48.184;11.510;2023-03-31T11:54:59;94643.69;;;11.13;100.00
7662;BME280;30314;48.184;11.510;2023-03-31T12:00:20;94630.47;;;11.65;100.00
7662;BME280;30314;48.184;11.510;2023-03-31T12:06:16;94574.53;;;11.75;100.00
7662;BME280;30314;48.184;11.510;2023-03-31T12:11:37;94565.88;;;11.87;100.00
7662;BME280;30314;48.184;11.510;2023-03-31T12:14:20;94574.13;;;12.07;96.94
7662;BME280;30314;48.184;11.510;2023-03-31T12:16:57;94580.81;;;12.04;100.00
7662;BME280;30314;48.184;11.510;2023-03-31T12:19:48;94588.81;;;12.17;100.00
7662;BME280;30314;48.184;11.510;2023-03-31T12:22:27;94568.31;;;12.26;92.78
7662;BME280;30314;48.184;11.510;2023-03-31T12:24:58;94560.81;;;12.28;92.94
7662;BME280;30314;48.184;11.510;2023-03-31T12:30:05;94566.34;;;12.48;98.21
7662;BME280;30314;48.184;11.510;2023-03-31T12:32:46;94582.13;;;12.44;92.87
7662;BME280;30314;48.184;11.510;2023-03-31T12:35:24;94574.97;;;12.57;95.41
7662;BME280;30314;48.184;11.510;2023-03-31T12:43:29;94594.06;;;12.50;99.15
7662;BME280;30314;48.184;11.510;2023-03-31T12:59:42;94602.13;;;12.54;94.60
7662;BME280;30314;48.184;11.510;2023-03-31T13:04:36;94604.78;;;12.66;89.42
7662;BME280;30314;48.184;11.510;2023-03-31T13:07:04;94610.09;;;12.66;90.10
7662;BME280;30314;48.184;11.510;2023-03-31T13:09:57;94608.97;;;12.55;88.73
7662;BME280;30314;48.184;11.510;2023-03-31T13:12:26;94612.69;;;12.42;83.87
7662;BME280;30314;48.184;11.510;2023-03-31T13:14:55;94598.97;;;12.27;69.79
7662;BME280;30314;48.184;11.510;2023-03-31T13:17:36;94601.53;;;12.02;72.25
7662;BME280;30314;48.184;11.510;2023-03-31T13:20:30;94607.53;;;11.90;72.23
7662;BME280;30314;48.184;11.510;2023-03-31T13:23:19;94542.03;;;11.53;75.92
7662;BME280;30314;48.184;11.510;2023-03-31T13:25:57;94518.63;;;11.43;83.77
7662;BME280;30314;48.184;11.510;2023-03-31T13:28:27;94490.19;;;11.61;84.41
7662;BME280;30314;48.184;11.510;2023-03-31T13:31:02;94519.81;;;11.88;85.51
7662;BME280;30314;48.184;11.510;2023-03-31T13:33:45;94532.94;;;11.97;77.32
7662;BME280;30314;48.184;11.510;2023-03-31T13:39:25;94554.41;;;12.17;79.08
7662;BME280;30314;48.184;11.510;2023-03-31T13:44:59;94570.50;;;12.11;74.98
7662;BME280;30314;48.184;11.510;2023-03-31T13:48:02;94585.94;;;12.22;72.97
7662;BME280;30314;48.184;11.510;2023-03-31T14:04:45;94585.75;;;11.51;92.44
7662;BME280;30314;48.184;11.510;2023-03-31T14:07:28;94567.16;;;11.47;95.44
7662;BME280;30314;48.184;11.510;2023-03-31T14:09:57;94576.22;;;11.37;96.71
7662;BME280;30314;48.184;11.510;2023-03-31T14:14:59;94600.50;;;11.31;90.85
7662;BME280;30314;48.184;11.510;2023-03-31T14:17:31;94589.91;;;11.39;84.96
7662;BME280;30314;48.184;11.510;2023-03-31T14:23:10;94603.50;;;11.50;90.61
7662;BME280;30314;48.184;11.510;2023-03-31T14:26:06;94614.84;;;11.51;85.55
7662;BME280;30314;48.184;11.510;2023-03-31T14:29:18;94610.34;;;11.51;89.97
7662;BME280;30314;48.184;11.510;2023-03-31T14:37:08;94598.34;;;11.33;90.10
7662;BME280;30314;48.184;11.510;2023-03-31T14:39:40;94624.94;;;11.27;91.20
7662;BME280;30314;48.184;11.510;2023-03-31T14:42:13;94649.88;;;11.09;98.38
7662;BME280;30314;48.184;11.510;2023-03-31T14:44:42;94686.28;;;9.94;100.00
7662;BME280;30314;48.184;11.510;2023-03-31T14:47:21;94685.47;;;9.49;100.00
7662;BME280;30314;48.184;11.510;2023-03-31T14:49:58;94670.84;;;8.94;100.00
7662;BME280;30314;48.184;11.510;2023-03-31T14:52:29;94662.41;;;8.74;100.00
7662;BME280;30314;48.184;11.510;2023-03-31T14:54:55;94691.16;;;8.62;100.00
7662;BME280;30314;48.184;11.510;2023-03-31T14:57:48;94689.00;;;8.41;100.00
7662;BME280;30314;48.184;11.510;2023-03-31T15:00:23;94582.56;;;8.47;100.00
7662;BME280;30314;48.184;11.510;2023-03-31T15:02:52;94603.91;;;8.45;100.00
7662;BME280;30314;48.184;11.510;2023-03-31T15:05:25;94622.66;;;8.53;100.00
7662;BME280;30314;48.184;11.510;2023-03-31T15:07:57;94599.31;;;8.60;100.00
7662;BME280;30314;48.184;11.510;2023-03-31T15:10:29;94587.97;;;8.91;100.00
7662;BME280;30314;48.184;11.510;2023-03-31T15:12:58;94587.72;;;9.19;100.00
7662;BME280;30314;48.184;11.510;2023-03-31T15:15:26;94569.19;;;9.24;100.00
7662;BME280;30314;48.184;11.510;2023-03-31T15:17:53;94585.28;;;9.32;100.00
7662;BME280;30314;48.184;11.510;2023-03-31T15:20:30;94577.25;;;9.37;100.00
7662;BME280;30314;48.184;11.510;2023-03-31T15:23:02;94557.88;;;9.50;100.00